createdAt,value
2023-04-17T00:00:39.210Z,100854.34
2023-04-17T00:05:46.497Z,100847.44
2023-04-17T00:11:00.185Z,100853.97
2023-04-17T00:16:10.874Z,100850.84
2023-04-17T00:21:14.479Z,100859.56
2023-04-17T00:26:17.357Z,100867.06
2023-04-17T00:31:20.772Z,100865.47
2023-04-17T00:36:23.671Z,100862.44
2023-04-17T00:41:26.593Z,100856.81
2023-04-17T00:46:29.862Z,100860.00
2023-04-17T00:51:33.485Z,100866.97
2023-04-17T00:56:36.598Z,100866.81
2023-04-17T01:01:39.522Z,100863.88
2023-04-17T01:06:42.716Z,100863.44
2023-04-17T01:11:46.737Z,100866.31
2023-04-17T01:16:50.718Z,100866.78
2023-04-17T01:21:53.952Z,100862.78
2023-04-17T01:26:58.093Z,100866.69
2023-04-17T01:32:02.008Z,100870.63
2023-04-17T01:37:05.555Z,100869.97
2023-04-17T01:42:08.483Z,100877.19
2023-04-17T01:47:11.429Z,100874.38
2023-04-17T01:52:14.314Z,100878.03
2023-04-17T01:57:35.642Z,100879.25
2023-04-17T02:02:38.890Z,100893.19
2023-04-17T02:07:42.119Z,100902.06
2023-04-17T02:12:44.982Z,100907.50
2023-04-17T02:17:48.071Z,100908.88
2023-04-17T02:22:51.099Z,100918.56
2023-04-17T02:27:55.124Z,100918.19
2023-04-17T02:32:58.654Z,100932.38
2023-04-17T02:38:01.655Z,100934.53
2023-04-17T02:43:04.804Z,100934.66
2023-04-17T02:48:07.901Z,100931.16
2023-04-17T02:53:11.948Z,100935.78
2023-04-17T02:58:15.086Z,100936.56
2023-04-17T03:03:18.335Z,100929.91
2023-04-17T03:08:40.346Z,100938.75
2023-04-17T03:13:43.641Z,100938.47
2023-04-17T03:18:46.454Z,100944.84
2023-04-17T03:23:49.304Z,100951.31
2023-04-17T03:28:53.383Z,100955.94
2023-04-17T03:33:56.555Z,100965.19
2023-04-17T03:39:00.678Z,100962.78
2023-04-17T03:44:03.814Z,100965.47
2023-04-17T03:49:07.168Z,100961.13
2023-04-17T03:54:29.376Z,100962.59
2023-04-17T03:59:33.996Z,100956.25
2023-04-17T04:04:37.220Z,100963.94
2023-04-17T04:09:59.079Z,100958.81
2023-04-17T04:15:03.381Z,100965.22
2023-04-17T04:20:09.332Z,100959.47
2023-04-17T04:25:12.584Z,100964.44
2023-04-17T04:30:25.663Z,100965.19
2023-04-17T04:35:35.695Z,100971.09
2023-04-17T04:40:38.756Z,100972.63
2023-04-17T04:45:44.539Z,100972.56
2023-04-17T04:50:47.786Z,100974.56
2023-04-17T04:55:51.073Z,100974.69
2023-04-17T05:00:54.260Z,100988.44
2023-04-17T05:06:04.556Z,100980.03
2023-04-17T05:11:15.902Z,100985.13
2023-04-17T05:16:19.300Z,100993.97
2023-04-17T05:21:22.362Z,100979.91
2023-04-17T05:26:27.592Z,100988.41
2023-04-17T05:31:30.891Z,100996.41
2023-04-17T05:36:35.722Z,100997.94
2023-04-17T05:41:40.398Z,100999.22
2023-04-17T05:46:43.280Z,100984.53
2023-04-17T05:51:47.553Z,100991.34
2023-04-17T05:56:50.752Z,100988.03
2023-04-17T06:01:53.862Z,100997.84
2023-04-17T06:06:58.222Z,100998.41
2023-04-17T06:12:01.568Z,101007.69
2023-04-17T06:17:04.550Z,101003.22
2023-04-17T06:22:07.541Z,101007.91
2023-04-17T06:27:10.448Z,101007.53
2023-04-17T06:32:13.476Z,101005.44
2023-04-17T06:37:16.945Z,101007.47
2023-04-17T06:42:20.788Z,101004.78
2023-04-17T06:47:35.032Z,100999.13
2023-04-17T06:52:38.508Z,100999.53
2023-04-17T06:57:41.397Z,101005.75
2023-04-17T07:02:44.668Z,101001.09
2023-04-17T07:07:48.215Z,101001.50
2023-04-17T07:12:51.603Z,101009.59
2023-04-17T07:17:55.334Z,101001.06
2023-04-17T07:22:58.269Z,101007.25
2023-04-17T07:28:02.583Z,100997.94
2023-04-17T07:33:06.920Z,100991.31
2023-04-17T07:38:09.835Z,100986.53
2023-04-17T07:43:12.807Z,100984.13
2023-04-17T07:48:19.077Z,100984.13
2023-04-17T07:53:22.524Z,100979.44
2023-04-17T07:58:27.333Z,100973.38
2023-04-17T08:03:32.058Z,100985.59
2023-04-17T08:08:35.094Z,100977.84
2023-04-17T08:13:56.970Z,100977.81
2023-04-17T08:18:59.870Z,100974.00
2023-04-17T08:24:02.772Z,100970.91
2023-04-17T08:29:05.612Z,100978.00
2023-04-17T08:34:27.479Z,100971.50
2023-04-17T08:39:30.578Z,100969.41
2023-04-17T08:44:33.621Z,100966.09
2023-04-17T08:49:36.968Z,100963.56
2023-04-17T08:54:39.866Z,100952.13
2023-04-17T08:59:43.124Z,100953.19
2023-04-17T09:04:47.330Z,100943.44
2023-04-17T09:09:52.797Z,100944.31
2023-04-17T09:14:56.131Z,100942.13
2023-04-17T09:20:09.197Z,100926.91
2023-04-17T09:25:17.805Z,100933.97
2023-04-17T09:30:20.987Z,100927.34
2023-04-17T09:35:26.278Z,100923.63
2023-04-17T09:40:38.266Z,100924.59
2023-04-17T09:45:42.925Z,100922.84
2023-04-17T09:50:46.560Z,100915.88
2023-04-17T09:55:53.353Z,100906.25
2023-04-17T10:00:56.768Z,100908.06
2023-04-17T10:06:00.805Z,100901.44
2023-04-17T10:11:08.966Z,100900.81
2023-04-17T10:16:12.258Z,100901.50
2023-04-17T10:21:23.350Z,100896.91
2023-04-17T10:26:26.308Z,100899.31
2023-04-17T10:32:10.827Z,100884.94
2023-04-17T10:37:16.989Z,100882.88
2023-04-17T10:42:21.423Z,100879.03
2023-04-17T10:47:31.611Z,100881.34
2023-04-17T10:52:40.852Z,100871.38
2023-04-17T10:57:53.853Z,100864.38
2023-04-17T11:02:57.030Z,100873.13
2023-04-17T11:08:00.352Z,100863.31
2023-04-17T11:13:03.242Z,100869.19
2023-04-17T11:18:06.565Z,100863.81
2023-04-17T11:23:10.026Z,100852.38
2023-04-17T11:28:13.363Z,100850.34
2023-04-17T11:33:16.828Z,100842.06
2023-04-17T11:38:23.949Z,100838.41
2023-04-17T11:43:28.742Z,100827.97
2023-04-17T11:48:50.805Z,100821.34
2023-04-17T11:53:53.743Z,100818.25
2023-04-17T11:59:30.849Z,100805.72
2023-04-17T12:04:35.862Z,100802.75
2023-04-17T12:09:38.979Z,100810.59
2023-04-17T12:14:41.985Z,100801.72
2023-04-17T12:19:45.538Z,100800.91
2023-04-17T12:24:48.243Z,100798.72
2023-04-17T12:29:51.212Z,100791.22
2023-04-17T12:34:54.083Z,100791.59
2023-04-17T12:39:56.904Z,100795.13
2023-04-17T12:45:02.111Z,100787.56
2023-04-17T12:50:07.104Z,100784.50
2023-04-17T12:55:10.788Z,100776.69
2023-04-17T13:00:14.196Z,100783.84
2023-04-17T13:05:17.301Z,100773.28
2023-04-17T13:10:20.182Z,100777.44
2023-04-17T13:15:42.649Z,100772.63
2023-04-17T13:20:45.858Z,100758.19
2023-04-17T13:25:48.672Z,100756.78
2023-04-17T13:30:52.990Z,100755.94
2023-04-17T13:35:56.104Z,100755.50
2023-04-17T13:40:59.026Z,100752.59
2023-04-17T13:46:02.353Z,100749.19
2023-04-17T13:51:08.334Z,100756.91
2023-04-17T13:56:11.771Z,100748.69
2023-04-17T14:01:14.760Z,100740.97
2023-04-17T14:06:19.082Z,100740.13
2023-04-17T14:11:23.093Z,100729.16
2023-04-17T14:16:26.182Z,100723.69
2023-04-17T14:21:29.360Z,100722.84
2023-04-17T14:26:32.756Z,100715.94
2023-04-17T14:31:35.673Z,100715.94
2023-04-17T14:36:38.613Z,100709.16
2023-04-17T14:41:41.430Z,100707.16
2023-04-17T14:46:44.581Z,100709.78
2023-04-17T14:51:47.769Z,100705.66
2023-04-17T14:56:50.834Z,100706.88
2023-04-17T15:01:54.122Z,100706.91
2023-04-17T15:06:57.153Z,100702.59
2023-04-17T15:12:01.836Z,100700.03
2023-04-17T15:17:07.069Z,100707.94
2023-04-17T15:22:10.299Z,100710.25
2023-04-17T15:27:13.340Z,100708.22
2023-04-17T15:32:16.406Z,100710.91
2023-04-17T15:37:19.423Z,100706.50
2023-04-17T15:42:22.944Z,100715.31
2023-04-17T15:47:25.954Z,100716.91
2023-04-17T15:52:29.149Z,100709.16
2023-04-17T15:57:32.021Z,100719.22
2023-04-17T16:02:35.081Z,100716.50
2023-04-17T16:07:38.024Z,100714.03
2023-04-17T16:12:45.000Z,100710.78
2023-04-17T16:17:49.102Z,100711.41
2023-04-17T16:22:51.994Z,100713.91
2023-04-17T16:27:54.829Z,100713.63
2023-04-17T16:32:57.930Z,100720.75
2023-04-17T16:38:03.402Z,100731.72
2023-04-17T16:43:06.427Z,100734.50
2023-04-17T16:48:11.322Z,100731.13
2023-04-17T16:53:14.740Z,100727.75
2023-04-17T16:58:17.443Z,100729.38
2023-04-17T17:03:20.266Z,100730.59
2023-04-17T17:08:23.672Z,100731.09
2023-04-17T17:13:26.441Z,100726.50
2023-04-17T17:18:29.320Z,100733.91
2023-04-17T17:23:32.433Z,100736.28
2023-04-17T17:28:55.554Z,100739.03
2023-04-17T17:34:11.767Z,100739.09
2023-04-17T17:39:25.239Z,100736.03
2023-04-17T17:44:28.174Z,100746.44
2023-04-17T17:49:31.163Z,100742.56
2023-04-17T17:54:38.052Z,100746.84
2023-04-17T17:59:41.176Z,100746.81
2023-04-17T18:04:44.284Z,100742.94
2023-04-17T18:09:49.480Z,100747.19
2023-04-17T18:14:53.757Z,100752.22
2023-04-17T18:19:56.692Z,100756.81
2023-04-17T18:24:59.646Z,100752.56
2023-04-17T18:30:05.114Z,100756.38
2023-04-17T18:35:08.839Z,100757.50
2023-04-17T18:40:14.621Z,100749.75
2023-04-17T18:45:17.993Z,100762.47
2023-04-17T18:50:21.653Z,100758.19
2023-04-17T18:55:27.300Z,100752.38
2023-04-17T19:00:30.241Z,100756.63
2023-04-17T19:05:33.369Z,100760.41
2023-04-17T19:10:39.928Z,100753.47
2023-04-17T19:15:43.310Z,100762.28
2023-04-17T19:20:46.690Z,100744.94
2023-04-17T19:25:55.897Z,100745.66
2023-04-17T19:31:03.734Z,100752.59
2023-04-17T19:36:10.659Z,100748.72
2023-04-17T19:41:18.816Z,100755.59
2023-04-17T19:46:25.708Z,100751.72
2023-04-17T19:51:28.793Z,100746.28
2023-04-17T19:56:36.912Z,100756.25
2023-04-17T20:01:41.495Z,100748.88
2023-04-17T20:07:04.799Z,100754.56
2023-04-17T20:12:08.102Z,100763.44
2023-04-17T20:17:11.356Z,100754.88
2023-04-17T20:22:14.470Z,100762.13
2023-04-17T20:27:18.195Z,100764.75
2023-04-17T20:32:20.885Z,100762.75
2023-04-17T20:37:24.005Z,100765.34
2023-04-17T20:42:26.899Z,100762.56
2023-04-17T20:47:29.835Z,100764.06
2023-04-17T20:52:33.379Z,100765.56
2023-04-17T20:57:36.727Z,100764.00
2023-04-17T21:02:41.549Z,100760.13
2023-04-17T21:07:44.692Z,100753.97
2023-04-17T21:12:47.672Z,100756.63
2023-04-17T21:17:50.674Z,100752.81
2023-04-17T21:22:53.605Z,100747.81
2023-04-17T21:27:56.615Z,100747.81
2023-04-17T21:32:59.647Z,100748.25
2023-04-17T21:38:02.799Z,100741.72
2023-04-17T21:43:05.839Z,100740.94
2023-04-17T21:48:08.638Z,100740.94
2023-04-17T21:53:11.844Z,100734.78
2023-04-17T21:58:15.156Z,100728.22
2023-04-17T22:03:18.520Z,100732.00
2023-04-17T22:08:21.444Z,100724.63
2023-04-17T22:13:24.394Z,100725.38
2023-04-17T22:18:27.945Z,100719.13
2023-04-17T22:23:30.920Z,100726.00
2023-04-17T22:28:33.778Z,100722.06
2023-04-17T22:33:36.641Z,100727.34
2023-04-17T22:38:39.488Z,100719.94
2023-04-17T22:43:42.438Z,100721.81
2023-04-17T22:48:45.308Z,100725.59
2023-04-17T22:53:48.445Z,100715.53
2023-04-17T22:58:51.709Z,100711.59
2023-04-17T23:03:54.703Z,100721.88
2023-04-17T23:08:58.521Z,100717.66
2023-04-17T23:14:02.193Z,100716.00
2023-04-17T23:19:05.158Z,100722.16
2023-04-17T23:24:08.373Z,100719.38
2023-04-17T23:29:11.299Z,100718.91
2023-04-17T23:34:14.324Z,100717.25
2023-04-17T23:39:17.339Z,100718.78
2023-04-17T23:44:20.371Z,100710.66
2023-04-17T23:49:23.260Z,100708.22
2023-04-17T23:54:26.110Z,100700.84
2023-04-17T23:59:29.227Z,100698.09
